SHJ weather

Sharjah International Airport
Sharjah, Sharjah Emirate, United Arab Emirates

Public forecast

Using degrees Celsius for public forecast. Weather courtesy of forecast.io.

Current aviation weather report (METAR) for Sharjah International Airport

Retrieved 2019/12/10 03:00 UTC (2 hours ago):

OMSJ 100300Z 12005KT 8000 NSC 20/18 Q1016 NOSIG

Aviation forecast (TAF) for Sharjah International Airport

Retrieved 2019-12-10 00:00 UTC (5 hours ago):

TAF OMSJ 092301Z 1000/1106 10007KT CAVOK PROB30 TEMPO 1002/1013 VRB20G30KT 1500 TSRA BLDU SCT035CB BECMG 1008/1010 36014KT BECMG 1013/1015 06008KT PROB30 TEMPO 1019/1106 VRB22G38KT 1500 TSRA BLDU BKN030CB